Archival Weather

Luke Afb

Glendale, Arizona (KLUF)

Report from: Friday, April 19, 2024 10:55 PM MST
Current time: Monday, June 24, 2024 2:55 AM MST

Current weather – Weather history – Daily summaries
Weather forecast

Temperature26.3°C (79.3°F)
Dew point-0.7°C (30.7°F)
Winds 4 kts (2.1 m/s, 4.6 mph) East-Southeast (120°)
Visibility10 mi. (16.1 km)
Clouds Scattered clouds 15,000 ft. (4,572 m)
Altimeter29.79 in.Hg (1009 mB)
Precip last 3 hoursTrace
Relative humidity17 %
Density altitude1,591 ft. (485 m)
Sea-level pressure100.8 kPa (1008 mB, 29.75 in.Hg)
Max temp last 6 hours33.0°C (91.4°F)
Min temp last 6 hours26.0°C (78.8°F)
Remarks Fully automated report
System requires maintenance
Automated weather observing station with precipitation discriminator
Pressure rising
Flight conditions Visual Meteorological Conditions
Raw dataKLUF 200555Z AUTO 12004KT 10SM SCT150 26/M01 A2979 RMK AO2 SLP075 60000 T02631007 10330 20260 52018 $
An error has occurred. This application may no longer respond until reloaded. Reload 🗙